Time;durP1;ratioP1;P1;durP2;ratioP2;P2;SDS_P1;SDS_P2;PMS_P1;PMS_P2;Temp;Humidity;BMP_temperature;BMP_pressure;BME280_temperature;BME280_humidity;BME280_pressure;Samples;Min_cycle;Max_cycle;Signal;HPM_P1;HPM_P2
2021/12/12 09:05:48;;;;;;;6.60;6.20;;;5.80;99.90;;;;;;5102063;27;20769;-82
2021/12/12 09:08:37;;;;;;;6.70;6.10;;;5.60;99.90;;;;;;5099176;28;20185;-82
2021/12/12 09:11:13;;;;;;;5.60;5.30;;;5.70;99.90;;;;;;5097088;28;20408;-81
2021/12/12 09:13:53;;;;;;;7.82;7.00;;;5.80;99.90;;;;;;5079829;28;20198;-82
2021/12/12 09:16:28;;;;;;;7.67;7.17;;;5.60;99.90;;;;;;5078695;28;20413;-82
2021/12/12 09:19:02;;;;;;;5.97;5.47;;;6.90;99.90;;;;;;5077453;28;20451;-82
2021/12/12 09:21:49;;;;;;;6.35;5.95;;;5.10;99.90;;;;;;5078022;28;20213;-81
2021/12/12 09:24:24;;;;;;;5.00;4.60;;;7.60;99.90;;;;;;5075588;28;20189;-82
2021/12/12 09:26:54;;;;;;;6.15;5.82;;;7.80;99.90;;;;;;5082333;28;20177;-82
2021/12/12 09:29:28;;;;;;;6.13;5.72;;;6.60;99.90;;;;;;5076490;28;20205;-81
2021/12/12 09:32:06;;;;;;;6.32;5.82;;;6.20;99.90;;;;;;5076242;28;20185;-81
2021/12/12 09:34:55;;;;;;;4.70;4.30;;;6.10;99.90;;;;;;5079689;28;20595;-81
2021/12/12 09:37:30;;;;;;;5.00;4.63;;;6.10;99.90;;;;;;5078396;28;20193;-81
2021/12/12 09:40:02;;;;;;;5.82;5.53;;;7.00;99.90;;;;;;5078193;28;20182;-82
2021/12/12 09:42:58;;;;;;;5.72;5.32;;;6.20;99.90;;;;;;5076324;28;20285;-82
2021/12/12 09:46:01;;;;;;;7.53;6.97;;;6.20;99.90;;;;;;4718180;27;10000219;-81
2021/12/12 09:52:23;;;;;;;7.20;6.70;;;6.30;99.90;;;;;;5076538;28;20239;-82
2021/12/12 09:55:01;;;;;;;8.55;6.57;;;6.00;99.90;;;;;;5072707;28;20198;-80
2021/12/12 09:57:37;;;;;;;4.30;4.05;;;6.40;99.90;;;;;;5089704;28;20401;-81
2021/12/12 10:00:28;;;;;;;7.63;6.65;;;6.40;99.90;;;;;;5066171;28;20205;-81
2021/12/12 10:03:05;;;;;;;6.20;5.80;;;6.40;99.90;;;;;;5097677;27;20218;-82
2021/12/12 10:06:01;;;;;;;4.70;4.45;;;6.40;99.90;;;;;;5073781;28;20279;-82
2021/12/12 10:08:36;;;;;;;6.25;5.55;;;7.10;99.90;;;;;;5090535;28;20730;-80
2021/12/12 10:11:07;;;;;;;5.28;4.88;;;6.40;99.90;;;;;;5074905;28;20181;-81
2021/12/12 10:13:47;;;;;;;5.97;5.50;;;6.40;99.90;;;;;;5075931;28;20295;-82
2021/12/12 10:16:36;;;;;;;5.45;4.88;;;6.40;99.90;;;;;;5062291;28;20193;-82
2021/12/12 10:19:48;;;;;;;4.45;4.07;;;6.50;99.90;;;;;;5068729;28;20281;-82
2021/12/12 10:22:31;;;;;;;4.10;3.83;;;6.50;99.90;;;;;;5036516;28;20191;-80
2021/12/12 10:25:18;;;;;;;4.75;4.45;;;6.50;99.90;;;;;;5081357;28;20221;-84
2021/12/12 10:27:58;;;;;;;4.25;4.15;;;6.60;99.90;;;;;;5051861;28;20198;-85
2021/12/12 10:30:29;;;;;;;4.40;4.10;;;6.60;99.90;;;;;;5047463;28;20183;-82
2021/12/12 10:33:07;;;;;;;6.22;5.75;;;6.70;99.90;;;;;;5065498;28;20182;-82
2021/12/12 10:35:43;;;;;;;4.60;4.30;;;8.00;99.90;;;;;;5069085;28;20352;-83
2021/12/12 10:38:17;;;;;;;5.55;5.00;;;6.60;99.90;;;;;;5087515;28;20186;-82
2021/12/12 10:41:07;;;;;;;4.82;4.40;;;6.60;99.90;;;;;;5066758;28;20178;-82
2021/12/12 10:43:49;;;;;;;5.70;5.38;;;7.40;99.90;;;;;;5059102;28;20442;-81
2021/12/12 10:46:32;;;;;;;5.32;4.03;;;6.70;99.90;;;;;;5071567;28;20214;-85
2021/12/12 10:49:07;;;;;;;4.40;4.28;;;6.10;99.90;;;;;;5067596;28;20186;-78
2021/12/12 10:51:54;;;;;;;4.57;4.28;;;6.80;99.90;;;;;;5066740;28;20273;-84
2021/12/12 10:54:40;;;;;;;4.05;3.85;;;6.80;99.90;;;;;;5072109;28;20210;-85
2021/12/12 10:57:12;;;;;;;3.75;3.65;;;6.90;99.90;;;;;;5070595;28;20220;-86
2021/12/12 11:00:00;;;;;;;4.63;3.80;;;7.10;99.90;;;;;;5067996;28;20199;-87
2021/12/12 11:02:46;;;;;;;4.43;4.18;;;7.00;99.90;;;;;;5068539;28;20668;-84
2021/12/12 11:05:21;;;;;;;8.50;4.80;;;7.50;99.90;;;;;;5065300;28;20222;-84
2021/12/12 11:08:10;;;;;;;4.85;4.60;;;7.00;99.90;;;;;;5066873;28;20189;-81
2021/12/12 11:10:41;;;;;;;4.30;4.00;;;7.00;99.90;;;;;;5064027;28;20731;-85
2021/12/12 11:13:14;;;;;;;3.20;3.20;;;6.80;99.90;;;;;;5058463;28;20262;-84
2021/12/12 11:15:54;;;;;;;3.25;3.15;;;9.20;99.90;;;;;;5061311;28;20207;-83
2021/12/12 11:18:25;;;;;;;5.10;4.70;;;9.00;99.90;;;;;;5056751;28;20201;-83
2021/12/12 11:21:06;;;;;;;4.00;3.88;;;11.10;99.90;;;;;;5065898;28;20262;-81
2021/12/12 11:23:52;;;;;;;4.05;3.85;;;8.70;99.90;;;;;;5065320;28;20187;-83
2021/12/12 11:26:23;;;;;;;2.65;2.55;;;7.30;99.90;;;;;;5061241;28;20178;-81
2021/12/12 11:29:10;;;;;;;3.70;3.60;;;6.00;99.90;;;;;;5060584;28;20234;-82
2021/12/12 11:31:54;;;;;;;3.72;2.92;;;8.40;99.90;;;;;;5054725;28;20198;-82
2021/12/12 11:34:31;;;;;;;3.80;3.70;;;6.80;99.90;;;;;;5074057;28;20226;-82
2021/12/12 11:37:15;;;;;;;3.30;3.30;;;7.00;99.90;;;;;;5058419;28;20261;-83
2021/12/12 11:39:56;;;;;;;4.72;4.40;;;7.00;99.90;;;;;;5062890;28;20218;-83
2021/12/12 11:42:26;;;;;;;4.10;3.90;;;6.70;99.90;;;;;;5075512;28;20191;-83
2021/12/12 11:45:00;;;;;;;3.17;3.08;;;7.00;99.90;;;;;;5063037;28;20229;-83
2021/12/12 11:47:54;;;;;;;3.03;2.90;;;6.00;99.90;;;;;;5063335;28;20189;-83
2021/12/12 11:51:01;;;;;;;3.85;3.60;;;7.60;99.90;;;;;;5055345;28;20579;-83
2021/12/12 11:54:19;;;;;;;3.03;3.03;;;6.90;99.90;;;;;;5060567;28;20691;-82
2021/12/12 11:56:53;;;;;;;3.08;3.08;;;7.10;99.90;;;;;;5037729;28;20678;-82
2021/12/12 11:59:50;;;;;;;3.30;3.17;;;7.10;99.90;;;;;;5061516;28;20408;-82
2021/12/12 12:02:56;;;;;;;3.30;3.20;;;7.30;99.90;;;;;;5055182;28;20351;-82
2021/12/12 12:05:52;;;;;;;3.72;3.53;;;8.90;99.90;;;;;;5059847;28;20225;-83
2021/12/12 12:08:46;;;;;;;3.05;2.85;;;6.30;99.90;;;;;;5057457;28;20389;-82
2021/12/12 12:11:26;;;;;;;1.95;1.92;;;7.10;99.90;;;;;;5061308;28;20230;-82
2021/12/12 12:14:26;;;;;;;5.28;3.33;;;7.60;99.90;;;;;;5062488;28;20218;-82
2021/12/12 12:17:09;;;;;;;4.57;4.30;;;7.20;99.90;;;;;;5080913;28;20190;-81
2021/12/12 12:20:04;;;;;;;4.28;4.15;;;9.70;99.90;;;;;;5050322;28;20193;-82
2021/12/12 12:23:06;;;;;;;3.90;3.80;;;7.30;99.90;;;;;;5061269;28;20660;-80
2021/12/12 12:28:56;;;;;;;4.10;4.00;;;7.30;99.90;;;;;;5070491;28;20213;-83
2021/12/12 12:32:09;;;;;;;4.68;4.47;;;7.30;99.90;;;;;;5047211;28;20208;-82
2021/12/12 12:35:09;;;;;;;4.15;4.05;;;7.30;99.90;;;;;;5074446;28;20218;-80
2021/12/12 12:38:12;;;;;;;3.65;3.65;;;7.80;99.90;;;;;;5060852;28;20199;-80
2021/12/12 12:41:07;;;;;;;2.92;2.83;;;7.30;99.90;;;;;;5100805;28;20192;-82
2021/12/12 12:44:27;;;;;;;3.80;3.70;;;8.90;99.90;;;;;;5066849;28;20201;-82
2021/12/12 12:47:32;;;;;;;3.72;3.65;;;7.30;99.90;;;;;;5043707;28;20836;-80
2021/12/12 12:50:16;;;;;;;3.95;3.85;;;7.30;99.90;;;;;;5071461;28;20473;-84
2021/12/12 12:53:34;;;;;;;4.20;4.10;;;7.40;99.90;;;;;;5067478;28;20190;-84
2021/12/12 13:03:13;;;;;;;3.80;3.78;;;7.40;99.90;;;;;;5036956;28;20740;-83
2021/12/12 13:06:00;;;;;;;3.40;3.30;;;7.50;99.90;;;;;;5067531;28;20219;-82
2021/12/12 13:08:57;;;;;;;3.67;3.53;;;7.70;99.90;;;;;;5064599;28;20237;-82
2021/12/12 13:11:48;;;;;;;3.20;3.20;;;7.50;99.90;;;;;;5070907;28;20244;-82
2021/12/12 13:14:13;;;;;;;2.90;2.90;;;7.50;99.90;;;;;;5067877;28;20241;-84
2021/12/12 13:17:21;;;;;;;3.67;3.63;;;10.30;99.90;;;;;;5075996;28;20190;-82
2021/12/12 13:20:06;;;;;;;5.28;3.60;;;7.40;99.90;;;;;;5065823;28;20174;-83
2021/12/12 13:22:43;;;;;;;4.45;4.25;;;7.70;99.90;;;;;;5070092;28;20224;-83
2021/12/12 13:25:17;;;;;;;4.13;4.13;;;8.50;99.90;;;;;;5067345;28;20782;-83
2021/12/12 13:28:06;;;;;;;5.00;4.85;;;8.00;99.90;;;;;;5067995;28;20703;-83
2021/12/12 13:31:00;;;;;;;4.97;4.78;;;9.50;99.90;;;;;;5068879;28;20632;-81
2021/12/12 13:34:08;;;;;;;4.50;4.30;;;7.50;99.90;;;;;;5066759;28;20238;-83
2021/12/12 13:37:15;;;;;;;4.10;4.07;;;7.60;99.90;;;;;;5059729;28;20179;-83
2021/12/12 13:40:07;;;;;;;4.60;4.40;;;7.60;99.90;;;;;;5044285;28;20665;-84
2021/12/12 13:43:05;;;;;;;5.63;5.43;;;8.90;99.90;;;;;;5049593;28;20759;-86
2021/12/12 13:45:51;;;;;;;5.82;5.53;;;7.60;99.90;;;;;;5048485;28;20633;-83
2021/12/12 13:48:50;;;;;;;5.00;4.80;;;7.90;99.90;;;;;;5064001;28;20171;-84
2021/12/12 13:51:32;;;;;;;3.42;3.35;;;8.00;99.90;;;;;;5015565;28;20627;-82
2021/12/12 13:54:13;;;;;;;5.25;5.10;;;7.90;99.90;;;;;;5048470;28;20210;-83
2021/12/12 13:57:00;;;;;;;4.93;4.72;;;7.50;99.90;;;;;;5059036;28;20206;-83
2021/12/12 13:59:44;;;;;;;5.35;5.25;;;8.20;99.90;;;;;;5068639;28;20182;-81
2021/12/12 14:02:14;;;;;;;5.78;5.50;;;8.10;99.90;;;;;;5067170;28;20279;-81
2021/12/12 14:05:00;;;;;;;6.80;6.40;;;9.40;99.90;;;;;;5065642;28;20700;-82
2021/12/12 14:07:51;;;;;;;7.53;5.53;;;6.30;99.90;;;;;;5062183;28;20195;-83
2021/12/12 14:10:35;;;;;;;5.40;5.10;;;8.10;99.90;;;;;;5065275;28;20194;-80
2021/12/12 14:13:11;;;;;;;4.88;4.78;;;6.50;99.90;;;;;;5096300;28;20199;-83
2021/12/12 14:15:42;;;;;;;4.35;4.15;;;10.00;99.90;;;;;;5082510;28;20235;-83
2021/12/12 14:18:10;;;;;;;5.72;5.43;;;7.30;99.90;;;;;;5068672;28;20215;-83
2021/12/12 14:20:38;;;;;;;4.90;4.70;;;8.00;99.90;;;;;;5075178;28;20182;-80
2021/12/12 14:23:10;;;;;;;6.72;6.28;;;8.20;99.90;;;;;;5086514;28;20569;-82
2021/12/12 14:25:40;;;;;;;5.75;5.55;;;10.00;99.90;;;;;;5062542;28;20690;-79
2021/12/12 14:28:07;;;;;;;6.35;6.05;;;9.60;99.90;;;;;;5067453;28;20340;-83
2021/12/12 14:30:36;;;;;;;5.43;5.22;;;8.20;99.90;;;;;;5066484;28;20179;-82
2021/12/12 14:33:12;;;;;;;6.10;5.80;;;7.60;99.90;;;;;;5067782;28;20179;-82
2021/12/12 14:35:42;;;;;;;6.45;6.15;;;8.70;99.90;;;;;;5064011;28;20711;-81
2021/12/12 14:38:14;;;;;;;5.40;5.20;;;7.00;99.90;;;;;;5061479;28;20274;-79
2021/12/12 14:40:46;;;;;;;5.65;5.35;;;8.10;99.90;;;;;;5065971;28;20656;-81
2021/12/12 14:43:23;;;;;;;5.13;4.93;;;10.30;99.90;;;;;;5065485;28;20695;-81
2021/12/12 14:46:00;;;;;;;5.32;5.22;;;10.00;99.90;;;;;;5062706;28;20349;-81
2021/12/12 14:48:40;;;;;;;6.40;6.00;;;10.00;99.90;;;;;;4363689;28;10000772;-81
2021/12/12 14:51:12;;;;;;;6.85;6.45;;;8.00;99.90;;;;;;5088146;28;20240;-81
2021/12/12 14:53:46;;;;;;;6.85;6.45;;;8.20;99.90;;;;;;5064501;28;20279;-80
2021/12/12 14:56:40;;;;;;;5.80;5.35;;;8.40;99.90;;;;;;5065458;28;20452;-82
2021/12/12 14:59:20;;;;;;;4.95;4.75;;;10.80;99.90;;;;;;5064949;28;20277;-81
2021/12/12 15:02:00;;;;;;;7.65;7.25;;;10.40;99.90;;;;;;5062203;28;20224;-81
2021/12/12 15:04:39;;;;;;;5.97;5.68;;;10.60;99.90;;;;;;5062729;28;20257;-82
2021/12/12 15:07:15;;;;;;;5.20;5.00;;;9.70;99.90;;;;;;5055445;28;20202;-81
2021/12/12 15:09:51;;;;;;;5.40;5.10;;;10.00;99.90;;;;;;5062380;28;20675;-80
2021/12/12 15:12:19;;;;;;;6.22;5.93;;;8.30;99.90;;;;;;5060096;28;20255;-81
2021/12/12 15:14:52;;;;;;;6.13;5.68;;;7.00;99.90;;;;;;5063585;28;20206;-81
2021/12/12 15:17:22;;;;;;;5.38;5.10;;;8.30;99.90;;;;;;5059798;28;20202;-82
2021/12/12 15:19:53;;;;;;;6.82;6.28;;;8.30;99.90;;;;;;5062742;28;20179;-82
2021/12/12 15:22:22;;;;;;;6.07;5.88;;;8.30;99.90;;;;;;5060556;28;20280;-81
2021/12/12 15:24:55;;;;;;;7.72;7.22;;;7.90;99.90;;;;;;5063239;28;20250;-82
2021/12/12 15:27:31;;;;;;;6.25;5.88;;;7.20;99.90;;;;;;5062610;28;20676;-82
2021/12/12 15:29:59;;;;;;;6.82;6.40;;;7.20;99.90;;;;;;5078342;28;20201;-82
2021/12/12 15:32:30;;;;;;;6.57;5.95;;;7.40;99.90;;;;;;5063442;28;20195;-82
2021/12/12 15:35:07;;;;;;;7.73;7.10;;;8.20;99.90;;;;;;5065064;28;20761;-81
2021/12/12 15:37:48;;;;;;;5.17;4.87;;;9.40;99.90;;;;;;5060874;28;20528;-81
2021/12/12 15:40:36;;;;;;;6.18;5.78;;;8.10;99.90;;;;;;5059794;28;20954;-82
2021/12/12 15:43:10;;;;;;;15.57;5.80;;;9.60;99.90;;;;;;5057244;28;20179;-80
2021/12/12 15:45:44;;;;;;;6.20;5.83;;;7.60;99.90;;;;;;5063629;28;20980;-81
2021/12/12 15:48:28;;;;;;;7.60;7.10;;;8.40;99.90;;;;;;5060996;28;20506;-81
2021/12/12 15:50:55;;;;;;;7.32;6.82;;;7.60;99.90;;;;;;5058936;28;20191;-81
2021/12/12 15:53:25;;;;;;;8.40;7.80;;;7.40;99.90;;;;;;5058573;28;20265;-81
2021/12/12 15:55:54;;;;;;;8.30;7.60;;;7.80;99.90;;;;;;5131842;22;20208;-82
2021/12/12 15:58:27;;;;;;;6.85;6.45;;;11.70;99.90;;;;;;5040437;28;20207;-79
2021/12/12 16:01:03;;;;;;;9.45;8.77;;;10.50;99.90;;;;;;5042317;28;20668;-82
2021/12/12 16:03:35;;;;;;;6.80;6.40;;;9.60;99.90;;;;;;5042017;28;20522;-80
2021/12/12 16:06:01;;;;;;;7.70;7.20;;;9.40;99.90;;;;;;5041157;28;20198;-81
2021/12/12 16:08:50;;;;;;;8.07;7.57;;;8.30;99.90;;;;;;5044404;28;20159;-80
2021/12/12 16:11:19;;;;;;;6.85;6.53;;;8.40;99.90;;;;;;5042648;28;20194;-81
2021/12/12 16:13:47;;;;;;;6.68;6.30;;;8.50;99.90;;;;;;5042243;28;20550;-80
2021/12/12 16:16:19;;;;;;;8.68;8.02;;;8.50;99.90;;;;;;5043693;28;20498;-82
2021/12/12 16:18:56;;;;;;;7.90;7.30;;;8.60;99.90;;;;;;5061017;28;20171;-80
2021/12/12 16:21:23;;;;;;;9.70;8.97;;;8.60;99.90;;;;;;4694712;28;10000331;-80
2021/12/12 16:23:54;;;;;;;8.55;6.93;;;10.20;99.90;;;;;;5024332;28;20220;-81
2021/12/12 16:26:40;;;;;;;9.00;8.25;;;8.50;99.90;;;;;;5029921;28;20194;-81
2021/12/12 16:29:13;;;;;;;9.13;8.32;;;7.90;99.90;;;;;;5064809;28;20174;-81
2021/12/12 16:31:46;;;;;;;8.32;7.72;;;8.40;99.90;;;;;;5056078;28;20202;-80
2021/12/12 16:34:14;;;;;;;9.30;8.57;;;8.50;99.90;;;;;;5043417;28;20175;-79
2021/12/12 16:37:03;;;;;;;9.30;8.45;;;10.80;99.90;;;;;;5044787;28;20179;-81
2021/12/12 16:39:35;;;;;;;8.90;8.20;;;8.60;99.90;;;;;;5044213;28;20254;-78
2021/12/12 16:42:14;;;;;;;7.40;6.80;;;8.50;99.90;;;;;;5056870;28;20182;-81
2021/12/12 16:45:09;;;;;;;9.25;8.45;;;8.50;99.90;;;;;;5043276;28;20478;-79
2021/12/12 16:47:36;;;;;;;10.38;9.48;;;9.90;99.90;;;;;;5043968;28;20210;-79
2021/12/12 16:50:16;;;;;;;10.18;9.10;;;8.50;99.90;;;;;;5037738;28;20191;-80
2021/12/12 16:52:43;;;;;;;11.77;10.52;;;8.60;99.90;;;;;;5038174;28;20192;-81
2021/12/12 16:55:40;;;;;;;11.48;10.48;;;8.50;99.90;;;;;;5043306;28;20192;-81
2021/12/12 16:58:12;;;;;;;11.05;10.15;;;8.50;99.90;;;;;;5049350;28;20222;-81
2021/12/12 17:00:43;;;;;;;11.52;10.52;;;8.60;99.90;;;;;;5041895;28;20342;-80
2021/12/12 17:03:16;;;;;;;12.52;11.27;;;8.70;99.90;;;;;;5046114;28;20203;-82
2021/12/12 17:05:45;;;;;;;11.27;10.07;;;8.60;99.90;;;;;;5049452;28;20354;-81
2021/12/12 17:08:16;;;;;;;10.70;9.70;;;9.90;99.90;;;;;;5053884;28;20187;-81
2021/12/12 17:10:55;;;;;;;10.48;9.57;;;8.80;99.90;;;;;;5048679;28;20209;-82
2021/12/12 17:13:29;;;;;;;12.80;11.60;;;8.80;99.90;;;;;;5060775;28;20178;-80
2021/12/12 17:18:28;;;;;;;11.17;10.17;;;8.80;99.90;;;;;;5154481;22;20235;-84
2021/12/12 17:21:04;;;;;;;11.45;10.25;;;12.00;99.90;;;;;;5023235;28;20202;-82
2021/12/12 17:23:41;;;;;;;11.65;10.50;;;8.90;99.90;;;;;;5022457;28;20205;-80
2021/12/12 17:26:22;;;;;;;12.13;11.02;;;10.30;99.90;;;;;;5034815;28;20204;-83
2021/12/12 17:28:53;;;;;;;12.10;10.90;;;8.90;99.90;;;;;;5011546;28;20591;-83
2021/12/12 17:31:27;;;;;;;12.77;11.57;;;8.90;99.90;;;;;;5050253;28;20570;-83
2021/12/12 17:33:59;;;;;;;11.55;10.45;;;9.00;99.90;;;;;;5046591;28;20434;-79
2021/12/12 17:36:38;;;;;;;11.80;10.60;;;9.10;99.90;;;;;;5031924;28;20196;-81
2021/12/12 17:39:14;;;;;;;13.10;11.93;;;9.50;99.90;;;;;;5030712;28;20180;-82
2021/12/12 17:44:54;;;;;;;14.25;12.85;;;10.90;99.90;;;;;;5017685;28;20210;-80
2021/12/12 17:48:00;;;;;;;14.23;12.73;;;9.00;99.90;;;;;;5049875;28;20179;-83
2021/12/12 17:51:11;;;;;;;16.15;11.55;;;9.60;99.90;;;;;;5050972;28;20183;-83
2021/12/12 17:53:44;;;;;;;13.70;12.23;;;9.30;99.90;;;;;;5033192;28;20195;-83
2021/12/12 17:56:16;;;;;;;16.35;14.60;;;9.10;99.90;;;;;;5029603;28;20225;-80
2021/12/12 17:58:59;;;;;;;15.35;13.70;;;9.00;99.90;;;;;;5026757;28;20196;-84
2021/12/12 18:01:44;;;;;;;15.23;13.70;;;11.60;99.90;;;;;;5029340;28;20194;-83
2021/12/12 18:04:13;;;;;;;15.88;14.25;;;9.70;99.90;;;;;;5030485;28;20210;-82
2021/12/12 18:06:59;;;;;;;16.15;14.55;;;7.80;99.90;;;;;;5032904;28;20532;-83
2021/12/12 18:10:00;;;;;;;17.52;14.38;;;9.50;99.90;;;;;;5025524;28;20179;-80
2021/12/12 18:13:20;;;;;;;18.92;16.15;;;10.50;99.90;;;;;;5034619;28;20204;-80
2021/12/12 18:21:38;;;;;;;19.92;15.73;;;9.20;99.90;;;;;;5027406;22;20228;-81
2021/12/12 18:24:19;;;;;;;25.20;17.63;;;11.00;99.90;;;;;;5011593;28;20245;-81
2021/12/12 18:27:29;;;;;;;;;;;;;;;;;;;;;
2021/12/12 18:30:30;;;;;;;21.73;17.17;;;9.10;99.90;;;;;;5052299;22;20300;-78
2021/12/12 18:33:35;;;;;;;22.00;17.27;;;9.10;99.90;;;;;;5035729;28;20211;-81
2021/12/12 18:36:24;;;;;;;26.55;18.08;;;8.40;99.90;;;;;;5016228;28;20432;-80
2021/12/12 18:39:23;;;;;;;23.83;17.75;;;9.30;99.90;;;;;;5005164;22;20292;-79
2021/12/12 18:41:56;;;;;;;25.87;17.13;;;9.50;99.90;;;;;;4997484;28;20204;-80
2021/12/12 18:44:34;;;;;;;23.48;18.10;;;11.50;99.90;;;;;;5013923;28;20487;-79
2021/12/12 18:47:50;;;;;;;;;;;;;;;;;;;;;
2021/12/12 18:51:21;;;;;;;29.40;20.70;;;9.20;99.90;;;;;;4997972;28;20708;-80
2021/12/12 18:54:04;;;;;;;25.60;18.90;;;11.60;99.90;;;;;;4999479;28;20196;-79
2021/12/12 18:56:45;;;;;;;30.30;20.23;;;10.10;99.90;;;;;;5116549;23;20250;-80
2021/12/12 19:11:18;;;;;;;31.05;18.95;;;9.30;99.90;;;;;;5114628;22;20722;-80
2021/12/12 19:13:48;;;;;;;32.80;20.42;;;9.60;99.90;;;;;;4999684;28;20264;-80
2021/12/12 19:16:18;;;;;;;34.22;21.40;;;10.40;99.90;;;;;;4998277;28;20200;-80
2021/12/12 19:19:02;;;;;;;29.63;21.55;;;9.40;99.90;;;;;;5003151;28;20187;-80
2021/12/12 19:21:47;;;;;;;35.63;23.15;;;11.60;99.90;;;;;;4647601;28;10001052;-80
2021/12/12 19:24:23;;;;;;;34.63;21.10;;;9.30;99.90;;;;;;4998895;28;20351;-77
2021/12/12 19:27:09;;;;;;;32.88;22.00;;;10.00;99.90;;;;;;4996969;28;20310;-78
2021/12/12 19:29:42;;;;;;;33.35;20.25;;;11.60;99.90;;;;;;4996851;28;20251;-77
2021/12/12 19:32:15;;;;;;;41.50;24.42;;;9.30;99.90;;;;;;4982126;28;20182;-77
2021/12/12 19:34:46;;;;;;;30.75;20.77;;;9.30;99.90;;;;;;4989791;28;20235;-79
2021/12/12 19:37:15;;;;;;;38.05;21.88;;;9.60;99.90;;;;;;4989449;28;20169;-77
2021/12/12 19:39:56;;;;;;;37.97;24.17;;;8.90;99.90;;;;;;4991865;28;20193;-81
2021/12/12 19:42:32;;;;;;;36.80;22.90;;;9.40;99.90;;;;;;4990886;28;20180;-79
2021/12/12 19:45:12;;;;;;;37.92;23.17;;;9.30;99.90;;;;;;4986176;28;20212;-81
2021/12/12 19:47:42;;;;;;;44.42;25.25;;;9.30;99.90;;;;;;4985301;28;20177;-80
2021/12/12 19:50:14;;;;;;;38.80;24.55;;;9.30;99.90;;;;;;4988613;28;20192;-79
2021/12/12 19:52:42;;;;;;;39.90;24.95;;;9.30;99.90;;;;;;5001635;28;20196;-81
2021/12/12 19:55:14;;;;;;;36.13;21.05;;;9.40;99.90;;;;;;4998860;28;20602;-80
2021/12/12 19:57:45;;;;;;;36.95;23.85;;;9.70;99.90;;;;;;5000371;28;20195;-79
2021/12/12 20:00:20;;;;;;;39.78;24.85;;;8.50;99.90;;;;;;4992102;28;20189;-80
2021/12/12 20:02:49;;;;;;;39.03;23.92;;;9.40;99.90;;;;;;4981272;28;20345;-81
2021/12/12 20:05:16;;;;;;;38.88;23.55;;;9.40;99.90;;;;;;4982365;28;20460;-80
2021/12/12 20:07:43;;;;;;;41.50;24.80;;;9.40;99.90;;;;;;4980777;28;20170;-79
2021/12/12 20:10:44;;;;;;;40.70;24.67;;;9.40;99.90;;;;;;4980371;28;20307;-79
2021/12/12 20:13:11;;;;;;;42.47;24.53;;;9.60;99.90;;;;;;4949334;28;20220;-79
2021/12/12 20:15:38;;;;;;;46.03;25.52;;;9.40;99.90;;;;;;4985793;28;20431;-80
2021/12/12 20:18:09;;;;;;;37.47;21.27;;;9.50;99.90;;;;;;5001650;28;20792;-80
2021/12/12 20:20:44;;;;;;;34.72;22.42;;;9.10;99.90;;;;;;4994447;28;20499;-79
2021/12/12 20:23:13;;;;;;;42.83;24.77;;;9.40;99.90;;;;;;5000961;28;20279;-79
2021/12/12 20:25:51;;;;;;;39.67;23.88;;;9.30;99.90;;;;;;4991965;28;20211;-79
2021/12/12 20:28:31;;;;;;;30.67;19.55;;;9.60;99.90;;;;;;4982218;28;20568;-79
2021/12/12 20:31:05;;;;;;;43.65;25.50;;;9.50;99.90;;;;;;4974127;28;20198;-79
2021/12/12 20:33:35;;;;;;;42.20;21.40;;;9.00;99.90;;;;;;4960288;28;20234;-79
2021/12/12 20:36:29;;;;;;;42.83;25.00;;;9.10;99.90;;;;;;4980474;28;20203;-78
2021/12/12 20:39:10;;;;;;;45.63;24.90;;;9.60;99.90;;;;;;4996756;28;20276;-81
2021/12/12 20:41:58;;;;;;;41.38;21.02;;;9.40;99.90;;;;;;4975991;28;20268;-80
2021/12/12 20:44:40;;;;;;;43.83;24.25;;;9.60;99.90;;;;;;4962861;28;20217;-80
2021/12/12 20:47:08;;;;;;;51.47;26.88;;;9.60;99.90;;;;;;5000717;28;20201;-77
2021/12/12 20:49:41;;;;;;;48.83;25.17;;;9.70;99.90;;;;;;5003809;28;20184;-79
2021/12/12 20:52:15;;;;;;;40.08;25.17;;;8.80;99.90;;;;;;4982922;28;20193;-79
2021/12/12 20:54:51;;;;;;;40.00;24.35;;;11.40;99.90;;;;;;4983993;28;20176;-81
2021/12/12 20:57:54;;;;;;;30.83;19.30;;;9.80;99.90;;;;;;4964051;28;20189;-82
2021/12/12 21:00:48;;;;;;;33.08;21.08;;;9.80;99.90;;;;;;4961747;28;20283;-81
2021/12/12 21:03:20;;;;;;;35.38;22.35;;;9.90;99.90;;;;;;5003591;28;20244;-81
2021/12/12 21:05:50;;;;;;;37.38;21.58;;;9.00;99.90;;;;;;4986066;28;20738;-79
2021/12/12 21:08:22;;;;;;;33.50;20.60;;;9.80;99.90;;;;;;4974642;28;20428;-81
2021/12/12 21:10:49;;;;;;;33.33;23.23;;;9.80;99.90;;;;;;4980938;28;20478;-81
2021/12/12 21:13:36;;;;;;;36.30;22.10;;;8.50;99.90;;;;;;4981343;28;20248;-80
2021/12/12 21:16:11;;;;;;;35.28;23.50;;;13.50;99.90;;;;;;4979444;28;20527;-80
2021/12/12 21:18:50;;;;;;;34.30;22.67;;;9.60;99.90;;;;;;4981128;28;20690;-79
2021/12/12 21:21:19;;;;;;;36.43;23.60;;;9.60;99.90;;;;;;4976504;28;20710;-80
2021/12/12 21:23:48;;;;;;;42.72;25.88;;;9.80;99.90;;;;;;4982036;28;20437;-79
2021/12/12 21:26:27;;;;;;;45.72;25.70;;;10.50;99.90;;;;;;4982026;28;20204;-80
2021/12/12 21:29:04;;;;;;;30.02;20.85;;;9.80;99.90;;;;;;4981591;28;20595;-80
2021/12/12 21:31:41;;;;;;;33.28;22.38;;;10.20;99.90;;;;;;4977337;28;20192;-80
2021/12/12 21:34:12;;;;;;;39.22;24.55;;;10.30;99.90;;;;;;4980191;28;20191;-80
2021/12/12 21:36:49;;;;;;;42.63;25.65;;;9.80;99.90;;;;;;4978290;28;20185;-81
2021/12/12 21:40:13;;;;;;;38.55;22.92;;;9.80;99.90;;;;;;4980681;28;20193;-80
2021/12/12 21:42:44;;;;;;;40.45;25.05;;;10.50;99.90;;;;;;4980209;28;20570;-79
2021/12/12 21:45:32;;;;;;;48.17;25.37;;;9.80;99.90;;;;;;4981161;28;20311;-80
2021/12/12 21:48:01;;;;;;;40.88;26.27;;;9.80;99.90;;;;;;4981595;28;20416;-80
2021/12/12 21:50:35;;;;;;;42.30;25.65;;;9.90;99.90;;;;;;4987483;28;20203;-79
2021/12/12 21:53:01;;;;;;;34.40;20.33;;;;;;;;;;4986492;28;20243;-79
2021/12/12 21:55:32;;;;;;;42.50;25.90;;;9.90;99.90;;;;;;4990477;28;20618;-78
2021/12/12 21:58:10;;;;;;;43.20;25.90;;;9.70;99.90;;;;;;4988774;28;20651;-79
2021/12/12 22:00:41;;;;;;;41.13;25.92;;;10.20;99.90;;;;;;4997802;28;20258;-81
2021/12/12 22:03:07;;;;;;;43.17;21.40;;;;;;;;;;4986466;28;20189;-80
2021/12/12 22:05:41;;;;;;;48.38;28.95;;;10.20;99.90;;;;;;4987590;28;20247;-80
2021/12/12 22:08:29;;;;;;;42.88;25.38;;;9.70;99.90;;;;;;4975694;28;20193;-80
2021/12/12 22:11:01;;;;;;;45.30;26.25;;;9.80;99.90;;;;;;4982047;28;20225;-79
2021/12/12 22:13:35;;;;;;;48.72;27.58;;;9.80;99.90;;;;;;4989912;28;20217;-80
2021/12/12 22:16:08;;;;;;;52.97;29.30;;;13.10;99.90;;;;;;4982952;28;20193;-78
2021/12/12 22:18:39;;;;;;;43.63;27.23;;;9.90;99.90;;;;;;4987432;28;20428;-80
2021/12/12 22:21:10;;;;;;;38.65;24.58;;;9.90;99.90;;;;;;4984701;28;20330;-80
2021/12/12 22:23:52;;;;;;;44.72;26.10;;;9.90;99.90;;;;;;4979457;28;20181;-78
2021/12/12 22:26:18;;;;;;;46.58;26.73;;;10.20;99.90;;;;;;4986351;28;20217;-78
2021/12/12 22:29:55;;;;;;;41.37;22.60;;;9.90;99.90;;;;;;5384781;22;20235;-87
2021/12/12 22:33:13;;;;;;;45.75;28.05;;;9.90;99.90;;;;;;4978743;28;20461;-86
2021/12/12 22:38:23;;;;;;;;;;;;;;;;;;;;;
2021/12/12 22:41:00;;;;;;;44.25;26.40;;;12.40;99.90;;;;;;5011755;28;20267;-91
2021/12/12 22:43:39;;;;;;;40.20;26.08;;;13.10;99.90;;;;;;5026193;28;20196;-91
2021/12/12 22:49:46;;;;;;;38.88;25.20;;;10.20;99.90;;;;;;4949831;29;20222;-91
2021/12/12 22:52:26;;;;;;;34.53;24.27;;;9.30;99.90;;;;;;5029876;28;20197;-90
2021/12/12 22:54:54;;;;;;;36.50;25.08;;;10.70;99.90;;;;;;5024346;28;20230;-91
2021/12/12 22:57:26;;;;;;;36.60;24.33;;;11.70;99.90;;;;;;5028167;28;20208;-91
2021/12/12 23:00:27;;;;;;;38.73;26.80;;;9.90;99.90;;;;;;5022188;28;20204;-92
2021/12/12 23:03:02;;;;;;;42.67;27.08;;;10.80;99.90;;;;;;4986884;28;20446;-90
2021/12/12 23:05:40;;;;;;;36.55;23.67;;;9.90;99.90;;;;;;4998118;28;20220;-91
2021/12/12 23:08:42;;;;;;;36.00;25.55;;;9.10;99.90;;;;;;5014684;28;20452;-92
2021/12/12 23:11:13;;;;;;;39.25;25.67;;;9.80;99.90;;;;;;4994262;28;20203;-91
2021/12/12 23:14:12;;;;;;;34.08;23.30;;;13.30;99.90;;;;;;5029974;28;20202;-90
2021/12/12 23:17:30;;;;;;;35.72;21.50;;;9.90;99.90;;;;;;5018902;28;20671;-92
2021/12/12 23:20:55;;;;;;;31.50;22.05;;;11.40;99.90;;;;;;5030121;28;20181;-89
2021/12/12 23:24:07;;;;;;;31.33;22.98;;;9.80;99.90;;;;;;5034339;28;20199;-92
2021/12/12 23:31:19;;;;;;;28.65;21.38;;;9.70;99.90;;;;;;4979161;28;20640;-92
2021/12/12 23:34:50;;;;;;;28.25;20.75;;;9.80;99.90;;;;;;4960465;29;20188;-90
2021/12/12 23:38:25;;;;;;;32.42;22.17;;;11.10;99.90;;;;;;5023071;28;20607;-91
2021/12/12 23:41:50;;;;;;;23.33;18.33;;;10.80;99.90;;;;;;5024558;28;20199;-90
2021/12/12 23:45:22;;;;;;;31.38;20.73;;;9.10;99.90;;;;;;5033829;28;20471;-89
2021/12/12 23:48:46;;;;;;;32.55;21.58;;;10.30;99.90;;;;;;5021015;28;20185;-91
2021/12/12 23:52:11;;;;;;;22.52;17.77;;;10.30;99.90;;;;;;5020311;28;20193;-91
2021/12/12 23:55:25;;;;;;;24.45;18.13;;;9.70;99.90;;;;;;5022830;28;20224;-90
2021/12/12 23:58:51;;;;;;;25.25;18.98;;;9.50;99.90;;;;;;5034142;28;20207;-93
